Lopeno, Texas
Current Conditions -  °F | °C
As of 4:15 PM on Tuesday 21 Oct 2014 (Local Time) from KAPY Reporting Station
Clear Clear  
Wind Chill: 75°   Ceiling: Unl
Heat Index: 75°   Visibility: 10mi
Dew Point: 71°   Wind: 8mph
Humidity: 88%   Direction: 130°SE
Pressure: 29.93"   Gusts: NA
Location:  26.71°N, 99.11°W
Report Text: KAPY 212115Z AUTO 13007KT 10SM CLR 23/21 A2993 RMK AO2 T02400219
Loading
Personal Weather Stations






























Interactive Weather Map
Tropical Storm Tracking
New forecast layout! Learn more

10-Day Weather Forecast

Advertisements
Track Severe Weather on mobile